Tipler, Wisconsin
Current Conditions -  °F | °C
As of 7:35 AM on Friday 19 Dec 2014 (Local Time) from KEGV Reporting Station
Light Snow Light Snow  
Wind Chill: -1°   Ceiling: 200
Heat Index: -1°   Visibility: 1.2mi
Dew Point: -6°   Wind: 0mph
Humidity: 80%   Direction: NA
Pressure: 30.24"   Gusts: NA
Location:  45.9186°N, 88.7601°W
Report Text: KEGV 191335Z AUTO 00000KT 1 1/4SM -SN OVC002 M18/M21 A3024 RMK AO2 T11831210
Loading
Personal Weather Stations






























Interactive Weather Map New forecast layout! Learn more

10-Day Weather Forecast

Advertisements
Track Severe Weather on mobile